createdAt,value
2022-10-21T00:01:09.471Z,62.55
2022-10-21T00:06:02.482Z,62.70
2022-10-21T00:11:00.294Z,62.53
2022-10-21T00:16:16.561Z,61.42
2022-10-21T00:21:12.534Z,60.92
2022-10-21T00:26:06.596Z,61.00
2022-10-21T00:30:59.626Z,61.55
2022-10-21T00:36:03.680Z,63.60
2022-10-21T00:40:57.381Z,60.72
2022-10-21T00:45:53.756Z,63.20
2022-10-21T00:50:54.790Z,63.17
2022-10-21T00:55:57.072Z,62.13
2022-10-21T01:00:55.161Z,62.10
2022-10-21T01:10:47.381Z,58.13
2022-10-21T01:15:43.060Z,62.83
2022-10-21T01:21:04.461Z,63.03
2022-10-21T01:26:06.935Z,61.95
2022-10-21T01:31:32.963Z,59.97
2022-10-21T01:36:31.688Z,59.92
2022-10-21T01:41:35.266Z,59.90
2022-10-21T01:46:31.891Z,57.95
2022-10-21T01:51:27.863Z,59.53
2022-10-21T01:56:23.029Z,57.47
2022-10-21T02:01:17.979Z,56.28
2022-10-21T02:06:14.712Z,57.78
2022-10-21T02:11:12.875Z,53.92
2022-10-21T02:16:09.304Z,56.07
2022-10-21T02:21:07.859Z,55.90
2022-10-21T02:26:01.164Z,57.33
2022-10-21T02:31:18.465Z,57.10
2022-10-21T02:36:16.503Z,57.38
2022-10-21T02:41:12.042Z,56.88
2022-10-21T02:46:13.181Z,55.75
2022-10-21T02:51:08.531Z,55.88
2022-10-21T02:56:02.359Z,55.88
2022-10-21T03:00:55.861Z,58.22
2022-10-21T03:05:49.153Z,54.88
2022-10-21T03:10:43.349Z,53.38
2022-10-21T03:15:37.589Z,50.55
2022-10-21T03:20:30.271Z,53.35
2022-10-21T03:25:24.421Z,52.38
2022-10-21T03:30:18.520Z,55.88
2022-10-21T03:35:12.766Z,54.65
2022-10-21T03:40:12.261Z,55.22
2022-10-21T03:45:08.533Z,51.65
2022-10-21T03:50:02.248Z,52.40
2022-10-21T03:54:56.532Z,53.38
2022-10-21T03:59:51.973Z,50.83
2022-10-21T04:04:45.721Z,54.42
2022-10-21T04:09:39.381Z,54.47
2022-10-21T04:14:33.534Z,52.85
2022-10-21T04:19:27.029Z,50.50
2022-10-21T04:24:21.308Z,50.50
2022-10-21T04:29:14.293Z,49.00
2022-10-21T04:34:07.929Z,51.40
2022-10-21T04:39:01.748Z,49.25
2022-10-21T04:43:55.811Z,52.92
2022-10-21T04:48:49.772Z,50.40
2022-10-21T04:53:44.282Z,51.33
2022-10-21T04:58:38.323Z,53.00
2022-10-21T05:03:32.535Z,53.65
2022-10-21T05:08:25.940Z,55.55
2022-10-21T05:13:20.045Z,56.17
2022-10-21T05:18:13.952Z,53.58
2022-10-21T05:23:07.495Z,55.38
2022-10-21T05:28:05.404Z,58.70
2022-10-21T05:32:58.681Z,56.42
2022-10-21T05:37:52.187Z,58.22
2022-10-21T05:42:46.680Z,58.03
2022-10-21T05:47:41.814Z,63.00
2022-10-21T05:52:35.712Z,59.00
2022-10-21T05:57:29.305Z,57.78
2022-10-21T06:02:23.870Z,57.78
2022-10-21T06:07:17.896Z,56.75
2022-10-21T06:12:11.733Z,56.92
2022-10-21T06:17:06.014Z,56.17
2022-10-21T06:21:59.989Z,53.17
2022-10-21T06:26:53.443Z,56.17
2022-10-21T06:31:47.256Z,54.20
2022-10-21T06:36:41.491Z,54.45
2022-10-21T06:41:36.418Z,53.50
2022-10-21T06:46:30.389Z,52.20
2022-10-21T06:51:24.919Z,53.45
2022-10-21T06:56:19.270Z,53.55
2022-10-21T07:01:48.497Z,52.60
2022-10-21T07:06:47.991Z,46.88
2022-10-21T07:11:41.511Z,45.33
2022-10-21T07:16:36.821Z,47.47
2022-10-21T07:21:32.251Z,46.58
2022-10-21T07:26:30.495Z,48.00
2022-10-21T07:31:24.470Z,46.13
2022-10-21T07:36:20.861Z,44.85
2022-10-21T07:41:21.928Z,45.67
2022-10-21T07:46:16.696Z,43.35
2022-10-21T07:51:12.605Z,42.03
2022-10-21T07:56:17.459Z,36.65
2022-10-21T08:01:12.767Z,37.55
2022-10-21T08:06:07.535Z,39.03
2022-10-21T08:11:02.496Z,37.88
2022-10-21T08:15:57.506Z,39.10
2022-10-21T08:20:51.123Z,38.58
2022-10-21T08:26:11.279Z,45.22
2022-10-21T08:31:08.620Z,46.88
2022-10-21T08:36:45.021Z,53.42
2022-10-21T08:42:09.243Z,49.55
2022-10-21T08:52:25.599Z,54.42
2022-10-21T08:57:20.697Z,57.75
2022-10-21T09:02:15.170Z,55.33
2022-10-21T09:07:31.735Z,57.70
2022-10-21T09:12:38.709Z,58.83
2022-10-21T09:18:00.088Z,60.90
2022-10-21T09:23:22.046Z,63.05
2022-10-21T09:28:16.937Z,58.53
2022-10-21T09:33:20.824Z,60.00
2022-10-21T09:38:30.732Z,62.92
2022-10-21T09:43:26.867Z,64.63
2022-10-21T09:48:20.571Z,64.40
2022-10-21T09:53:26.575Z,73.00
2022-10-21T09:58:38.865Z,70.65
2022-10-21T10:03:41.312Z,67.20
2022-10-21T10:08:39.460Z,67.82
2022-10-21T10:13:33.734Z,67.90
2022-10-21T10:18:28.053Z,71.22
2022-10-21T10:23:21.941Z,66.05
2022-10-21T10:28:22.039Z,67.82
2022-10-21T10:33:30.747Z,69.32
2022-10-21T10:38:39.162Z,71.10
2022-10-21T10:43:33.924Z,64.25
2022-10-21T10:48:39.097Z,61.58
2022-10-21T10:53:33.979Z,52.97
2022-10-21T10:58:29.444Z,52.47
2022-10-21T11:03:28.442Z,57.00
2022-10-21T11:08:40.077Z,55.63
2022-10-21T11:13:41.911Z,59.38
2022-10-21T11:18:46.450Z,59.38
2022-10-21T11:24:01.753Z,59.28
2022-10-21T11:29:28.890Z,56.67
2022-10-21T11:34:47.860Z,59.08
2022-10-21T11:40:00.021Z,60.13
2022-10-21T11:45:23.733Z,55.78
2022-10-21T11:50:27.812Z,59.15
2022-10-21T11:55:53.537Z,56.20
2022-10-21T12:00:59.641Z,51.92
2022-10-21T12:06:00.247Z,55.20
2022-10-21T12:10:57.556Z,55.88
2022-10-21T12:15:57.219Z,54.65
2022-10-21T12:20:57.662Z,50.08
2022-10-21T12:26:17.708Z,54.58
2022-10-21T12:31:23.230Z,53.13
2022-10-21T12:36:25.627Z,46.97
2022-10-21T12:41:24.501Z,46.25
2022-10-21T12:46:25.435Z,42.90
2022-10-21T12:51:23.523Z,47.65
2022-10-21T12:56:42.823Z,50.80
2022-10-21T13:01:35.539Z,59.07
2022-10-21T13:06:52.288Z,54.33
2022-10-21T13:11:46.859Z,52.60
2022-10-21T13:16:42.204Z,50.90
2022-10-21T13:22:03.548Z,50.88
2022-10-21T13:26:58.740Z,48.22
2022-10-21T13:32:36.687Z,52.22
2022-10-21T13:38:00.828Z,46.30
2022-10-21T13:43:00.947Z,52.25
2022-10-21T13:48:19.966Z,58.13
2022-10-21T13:53:19.128Z,60.28
2022-10-21T13:58:17.301Z,52.70
2022-10-21T14:03:20.081Z,53.03
2022-10-21T14:08:40.960Z,48.83
2022-10-21T14:13:37.954Z,47.50
2022-10-21T14:18:42.851Z,39.72
2022-10-21T14:23:56.318Z,41.60
2022-10-21T14:29:10.379Z,43.17
2022-10-21T14:34:08.026Z,39.05
2022-10-21T14:39:04.003Z,42.95
2022-10-21T14:44:19.511Z,46.50
2022-10-21T14:49:35.936Z,45.17
2022-10-21T14:54:50.596Z,47.78
2022-10-21T15:00:27.580Z,50.35
2022-10-21T15:05:49.513Z,56.50
2022-10-21T15:10:43.545Z,60.85
2022-10-21T15:15:51.007Z,63.58
2022-10-21T15:20:57.974Z,66.28
2022-10-21T15:25:57.237Z,63.30
2022-10-21T15:30:53.013Z,71.15
2022-10-21T15:35:46.585Z,70.45
2022-10-21T15:40:40.762Z,78.10
2022-10-21T15:45:35.123Z,81.07
2022-10-21T15:50:29.675Z,76.50
2022-10-21T15:55:23.293Z,77.57
2022-10-21T16:00:20.614Z,78.07
2022-10-21T16:05:14.509Z,80.68
2022-10-21T16:10:19.570Z,72.40
2022-10-21T16:15:12.593Z,78.20
2022-10-21T16:20:08.685Z,81.03
2022-10-21T16:25:02.900Z,82.47
2022-10-21T16:29:56.820Z,78.60
2022-10-21T16:34:50.937Z,72.55
2022-10-21T16:39:45.068Z,80.00
2022-10-21T16:44:38.702Z,78.78
2022-10-21T16:49:32.866Z,75.18
2022-10-21T16:54:26.528Z,76.65
2022-10-21T16:59:20.707Z,80.57
2022-10-21T17:04:15.549Z,85.10
2022-10-21T17:09:09.275Z,84.13
2022-10-21T17:14:05.044Z,75.65
2022-10-21T17:18:58.907Z,81.32
2022-10-21T17:23:53.353Z,86.00
2022-10-21T17:28:46.883Z,85.78
2022-10-21T17:33:40.609Z,93.95
2022-10-21T17:38:34.362Z,87.82
2022-10-21T17:43:28.613Z,93.95
2022-10-21T17:48:22.835Z,86.00
2022-10-21T17:53:17.373Z,85.05
2022-10-21T17:58:11.219Z,72.78
2022-10-21T18:03:05.273Z,68.85
2022-10-21T18:08:02.318Z,66.38
2022-10-21T18:12:56.726Z,74.72
2022-10-21T18:17:50.461Z,83.88
2022-10-21T18:22:44.605Z,80.72
2022-10-21T18:27:38.227Z,86.90
2022-10-21T18:32:32.300Z,80.45
2022-10-21T18:37:26.325Z,72.25
2022-10-21T18:42:20.345Z,73.97
2022-10-21T18:47:14.614Z,76.63
2022-10-21T18:52:08.306Z,77.80
2022-10-21T18:57:05.151Z,71.93
2022-10-21T19:02:01.005Z,68.32
2022-10-21T19:06:56.642Z,70.28
2022-10-21T19:11:51.450Z,68.00
2022-10-21T19:16:45.841Z,65.90
2022-10-21T19:21:39.870Z,69.82
2022-10-21T19:26:35.214Z,66.78
2022-10-21T19:31:31.416Z,66.88
2022-10-21T19:36:27.206Z,65.25
2022-10-21T19:41:23.261Z,62.08
2022-10-21T19:46:21.127Z,61.95
2022-10-21T19:51:19.975Z,62.72
2022-10-21T19:56:14.620Z,64.20
2022-10-21T20:01:14.380Z,62.30
2022-10-21T20:06:17.655Z,59.63
2022-10-21T20:11:17.173Z,64.32
2022-10-21T20:16:18.676Z,66.53
2022-10-21T20:21:16.407Z,65.70
2022-10-21T20:26:10.487Z,70.75
2022-10-21T20:31:07.229Z,72.18
2022-10-21T20:36:09.959Z,68.30
2022-10-21T20:41:10.067Z,72.43
2022-10-21T20:46:04.539Z,71.32
2022-10-21T20:51:06.432Z,64.38
2022-10-21T20:56:01.047Z,63.97
2022-10-21T21:00:55.445Z,69.22
2022-10-21T21:05:52.808Z,66.97
2022-10-21T21:10:46.466Z,67.25
2022-10-21T21:15:41.112Z,65.75
2022-10-21T21:20:41.781Z,66.72
2022-10-21T21:25:35.969Z,64.60
2022-10-21T21:30:37.171Z,65.20
2022-10-21T21:35:30.874Z,63.67
2022-10-21T21:40:24.848Z,65.72
2022-10-21T21:45:19.036Z,65.18
2022-10-21T21:50:12.991Z,68.57
2022-10-21T21:55:09.497Z,65.82
2022-10-21T22:00:03.430Z,64.20
2022-10-21T22:04:59.102Z,65.60
2022-10-21T22:09:53.200Z,70.20
2022-10-21T22:14:47.273Z,77.07
2022-10-21T22:19:41.388Z,70.18
2022-10-21T22:24:35.539Z,72.22
2022-10-21T22:29:29.246Z,73.15
2022-10-21T22:34:23.254Z,71.20
2022-10-21T22:39:17.176Z,76.10
2022-10-21T22:44:12.307Z,66.85
2022-10-21T22:49:06.485Z,73.07
2022-10-21T22:53:59.957Z,68.53
2022-10-21T22:58:53.817Z,69.78
2022-10-21T23:03:48.088Z,69.20
2022-10-21T23:08:42.240Z,64.25
2022-10-21T23:13:36.411Z,61.22
2022-10-21T23:18:30.777Z,61.88
2022-10-21T23:23:23.892Z,59.38
2022-10-21T23:33:30.616Z,48.35
2022-10-21T23:38:24.856Z,44.80
2022-10-21T23:43:18.428Z,41.95
2022-10-21T23:48:11.666Z,44.30
2022-10-21T23:53:05.609Z,41.50
2022-10-21T23:57:58.950Z,39.33
